Ciudad De Ibiza — 5BRJ4 — position and weather

sailwx.info

Track history (hours):
 
Tides and Currents Weather Stations Pressure Air Temp Water Temp Dewpoint Dewpoint Depression Visibility Wind Speed Wind Dir Waves Ship Positions

Ciudad De Ibiza

Last reported at 2018-Mar-13 22:09 UTC. Time now 2018-Jun-19 06:48 UTC.
Position N 39°24' W 000°14'.
Warning: this ship's position is months out of date.

Length 160 m; draft 5.3 m.

Type: Other ship. MMSI: 212592000.

Date/timePositionNaut miles runAvg speedWind from/ knotsBaromVisibWave heightAir tempDewpointWater temp
2018-Mar-13 22:09N 39°24' W 000°14'215.6
2018-Mar-13 22:00N 39°25' W 000°17'3 5.7
2018-Mar-13 21:30N 39°27' W 000°19'0 0.0
2018-Mar-13 21:00N 39°27' W 000°19'0 0.0
2018-Mar-13 20:30N 39°27' W 000°19'0 0.0
2018-Mar-13 20:00N 39°27' W 000°19'0 0.0
2018-Mar-13 19:30N 39°27' W 000°19'0 0.0
2018-Mar-13 19:00N 39°27' W 000°19'0 0.0
2018-Mar-13 18:30N 39°27' W 000°19'0 0.0
2018-Mar-13 18:00N 39°27' W 000°19'1 1.1
2018-Mar-13 17:30N 39°27' W 000°19'5215.8
2018-Mar-13 14:12N 39°03' E 000°41'1217.4
2018-Mar-13 13:29N 38°57' E 000°55'2317.4
2018-Mar-13 12:09N 38°48' E 001°23'212.8
2018-Mar-13 11:58N 38°49' E 001°26'84 6.3
2018-Mar-12 22:37N 39°23' W 000°13'216.7
2018-Mar-12 22:30N 39°24' W 000°15'5 9.8
2018-Mar-12 22:01N 39°27' W 000°19'0 0.0
2018-Mar-12 21:30N 39°27' W 000°19'0 0.0
2018-Mar-12 21:01N 39°27' W 000°19'0 0.0
2018-Mar-12 20:31N 39°27' W 000°19'0 0.0
2018-Mar-12 20:01N 39°27' W 000°19'1 1.2
2018-Mar-12 19:31N 39°27' W 000°19'8818.6
2018-Mar-12 14:48N 38°48' E 001°22'411.5
2018-Mar-12 14:29N 38°50' E 001°26'4 3.6
2018-Mar-12 13:18N 38°54' E 001°29'620.6
2018-Mar-12 13:00N 38°57' E 001°35'3719.8
2018-Mar-12 11:08N 39°17' E 002°16'319.2
2018-Mar-12 10:59N 39°19' E 002°19'919.1
2018-Mar-12 10:30N 39°24' E 002°28'919.0
2018-Mar-12 10:00N 39°31' E 002°37'3 6.0
2018-Mar-12 09:30N 39°34' E 002°38'0 0.0
2018-Mar-12 09:00N 39°34' E 002°38'0 0.0
2018-Mar-12 08:30N 39°34' E 002°38'0 0.0
2018-Mar-12 07:57N 39°34' E 002°38'0 0.0
2018-Mar-12 07:27N 39°34' E 002°38'0 0.0
2018-Mar-12 07:00N 39°34' E 002°38'0 0.0
2018-Mar-12 06:30N 39°34' E 002°38'0 0.0
2018-Mar-12 06:00N 39°34' E 002°38'1 2.8
2018-Mar-12 05:30N 39°32' E 002°39'816.3
2018-Mar-12 05:00N 39°26' E 002°32'1020.1
2018-Mar-12 04:30N 39°20' E 002°21'3020.7
2018-Mar-12 03:03N 39°04' E 001°48'120.4
2018-Mar-12 02:59N 39°03' E 001°47'1020.7
2018-Mar-12 02:30N 38°58' E 001°36'8 6.8
2018-Mar-12 01:19N 38°54' E 001°27'514.2
2018-Mar-12 01:00N 38°56' E 001°32'917.2
2018-Mar-12 00:29N 39°02' E 001°41'8817.9
2018-Mar-11 19:35N 39°23' W 000°09'220.2
2018-Mar-11 19:29N 39°24' W 000°12'613.2
2018-Mar-11 19:00N 39°27' W 000°19'1 0.9
2018-Mar-11 18:08N 39°27' W 000°20'0 0.0
2018-Mar-11 16:08N 39°27' W 000°20'0 0.0
2018-Mar-11 15:44N 39°27' W 000°20'0 0.0
2018-Mar-11 15:23N 39°27' W 000°20'0 0.0
2018-Mar-11 14:56N 39°27' W 000°20'0 0.0
2018-Mar-11 14:20N 39°27' W 000°20'0 0.0
2018-Mar-11 13:59N 39°27' W 000°20'0 0.0
2018-Mar-11 13:26N 39°27' W 000°20'0 0.0
2018-Mar-11 12:56N 39°27' W 000°20'0 0.0
2018-Mar-11 11:20N 39°27' W 000°20'0 0.0
2018-Mar-11 10:56N 39°27' W 000°20'0 0.0
2018-Mar-11 10:20N 39°27' W 000°20'0 0.0
2018-Mar-11 09:38N 39°27' W 000°20'0 0.0
2018-Mar-11 09:26N 39°27' W 000°20'0 0.0
2018-Mar-11 08:56N 39°27' W 000°20'0 0.0
2018-Mar-11 08:26N 39°27' W 000°20'0 0.0
2018-Mar-11 07:59N 39°27' W 000°20'0 0.0
2018-Mar-11 07:29N 39°27' W 000°20'0 0.0
2018-Mar-11 06:56N 39°27' W 000°20'0 0.0
2018-Mar-11 06:29N 39°27' W 000°20'0 0.0
2018-Mar-11 05:56N 39°27' W 000°20'0 0.0
2018-Mar-11 05:26N 39°27' W 000°20'0 0.0
2018-Mar-11 04:56N 39°27' W 000°20'0 0.0
2018-Mar-11 04:26N 39°27' W 000°20'0 0.0
2018-Mar-11 03:59N 39°27' W 000°20'0 0.0
2018-Mar-11 03:29N 39°27' W 000°20'0 0.0
2018-Mar-11 02:59N 39°27' W 000°20'0 0.0
2018-Mar-11 02:29N 39°27' W 000°20'0 0.0
2018-Mar-11 01:41N 39°27' W 000°20'0 0.0
2018-Mar-11 01:26N 39°27' W 000°20'0 0.0
2018-Mar-11 00:56N 39°27' W 000°20'0 0.0
2018-Mar-11 00:17N 39°27' W 000°20'0 0.0
2018-Mar-10 23:59N 39°27' W 000°20'0 0.0
2018-Mar-10 23:26N 39°27' W 000°20'0 0.0
2018-Mar-10 22:56N 39°27' W 000°20'0 0.0
2018-Mar-10 22:29N 39°27' W 000°20'0 0.0
2018-Mar-10 21:56N 39°27' W 000°20'0 0.0
2018-Mar-10 20:56N 39°27' W 000°20'0 0.0
2018-Mar-10 18:25N 39°27' W 000°20'0 0.0
2018-Mar-10 18:00N 39°27' W 000°20'1 1.6
2018-Mar-10 17:30N 39°27' W 000°19'8216.6
2018-Mar-10 12:31N 38°50' E 001°16'416.8
2018-Mar-10 12:16N 38°48' E 001°21'312.5
2018-Mar-10 12:00N 38°49' E 001°26'4 0.5
2018-Mar-10 03:50N 38°53' E 001°27'8314.3
2018-Mar-09 22:02N 39°24' W 000°13'115.3
2018-Mar-09 21:59N 39°24' W 000°14'611.7
2018-Mar-09 21:31N 39°27' W 000°19'0 0.1
2018-Mar-09 20:59N 39°27' W 000°19'0 0.0
2018-Mar-09 20:29N 39°27' W 000°19'0 0.0
2018-Mar-09 19:59N 39°27' W 000°19'0 0.0
2018-Mar-09 19:29N 39°27' W 000°19'0 0.0
2018-Mar-09 19:00N 39°27' W 000°19'0 0.0
2018-Mar-09 18:30N 39°27' W 000°19'0 0.0
2018-Mar-09 18:00N 39°27' W 000°19'1 1.3
2018-Mar-09 17:30N 39°27' W 000°19'8216.7
2018-Mar-09 12:33N 38°50' E 001°16'217.2
2018-Mar-09 12:28N 38°49' E 001°18'613.8
2018-Mar-09 12:00N 38°49' E 001°26'5 1.7
2018-Mar-09 08:51N 38°54' E 001°27'0 0.0
2018-Mar-09 06:06N 38°54' E 001°27'0 0.0
2018-Mar-09 05:52N 38°54' E 001°27'0 0.0
2018-Mar-09 05:18N 38°54' E 001°27'0 0.0
2018-Mar-09 04:51N 38°54' E 001°27'0 0.0
2018-Mar-09 04:30N 38°54' E 001°27'1 0.9
2018-Mar-09 03:57N 38°54' E 001°27'712.0
2018-Mar-09 03:23N 38°48' E 001°24'8115.8
2018-Mar-08 22:16N 39°23' W 000°10'514.9
2018-Mar-08 21:57N 39°25' W 000°16'4 7.8
2018-Mar-08 21:29N 39°27' W 000°19'0 0.0
2018-Mar-08 20:59N 39°27' W 000°19'0 0.0
2018-Mar-08 20:23N 39°27' W 000°19'5 0.2
2018-Mar-07 21:58N 39°24' W 000°15'5 9.4
2018-Mar-07 21:29N 39°27' W 000°19'0 0.0
2018-Mar-07 20:59N 39°27' W 000°19'0 0.0
2018-Mar-07 20:29N 39°27' W 000°19'0 0.0
2018-Mar-07 19:59N 39°27' W 000°19'0 0.0
2018-Mar-07 19:29N 39°27' W 000°19'0 0.0
2018-Mar-07 19:01N 39°27' W 000°19'0 0.0
2018-Mar-07 18:30N 39°27' W 000°19'0 0.0
2018-Mar-07 18:00N 39°27' W 000°19'1 1.1
2018-Mar-07 17:30N 39°27' W 000°19'8017.0
2018-Mar-07 12:49N 38°51' E 001°13'616.6
2018-Mar-07 12:29N 38°49' E 001°19'612.3
2018-Mar-07 12:00N 38°50' E 001°27'4 7.9
2018-Mar-07 11:29N 38°54' E 001°27'0 0.0
2018-Mar-07 10:59N 38°54' E 001°27'0 0.0
2018-Mar-07 10:29N 38°54' E 001°27'0 0.0
2018-Mar-07 09:59N 38°54' E 001°27'0 0.0
2018-Mar-07 09:29N 38°54' E 001°27'0 0.0
2018-Mar-07 08:59N 38°54' E 001°27'0 0.0
2018-Mar-07 08:29N 38°54' E 001°27'0 0.0
2018-Mar-07 07:59N 38°54' E 001°27'0 0.0
2018-Mar-07 07:29N 38°54' E 001°27'0 0.0
2018-Mar-07 06:59N 38°54' E 001°27'0 0.0
2018-Mar-07 06:29N 38°54' E 001°27'1 0.4
2018-Mar-07 03:52N 38°53' E 001°27'8114.5
2018-Mar-06 22:15N 39°22' W 000°11'415.9
2018-Mar-06 21:59N 39°25' W 000°15'4 8.5
2018-Mar-06 21:29N 39°27' W 000°19'0 0.0
2018-Mar-06 20:59N 39°27' W 000°19'0 0.0
2018-Mar-06 20:29N 39°27' W 000°19'0 0.0
2018-Mar-06 19:59N 39°27' W 000°19'0 0.0
2018-Mar-06 19:29N 39°27' W 000°19'0 0.0
2018-Mar-06 19:00N 39°27' W 000°19'0 0.0
2018-Mar-06 18:30N 39°27' W 000°19'0 0.0
2018-Mar-06 18:00N 39°27' W 000°19'1 1.5
2018-Mar-06 17:30N 39°27' W 000°19'816.3
2018-Mar-06 17:00N 39°24' W 000°09'8719.1
2018-Mar-06 12:26N 39°02' E 001°40'819.4
2018-Mar-06 12:00N 38°56' E 001°33'5 0.8
2018-Mar-06 06:27N 38°54' E 001°27'0 0.0
2018-Mar-06 05:57N 38°54' E 001°27'0 0.0
2018-Mar-06 05:27N 38°54' E 001°27'0 0.0
2018-Mar-06 05:00N 38°54' E 001°27'0 0.1
2018-Mar-06 04:27N 38°54' E 001°27'4 9.4
2018-Mar-06 04:00N 38°50' E 001°27'712.7
2018-Mar-06 03:28N 38°48' E 001°18'7716.1
2018-Mar-05 22:41N 39°21' W 000°11'516.8
2018-Mar-05 22:23N 39°25' W 000°16'4 9.5
2018-Mar-05 21:59N 39°27' W 000°19'0 0.0
2018-Mar-05 21:30N 39°27' W 000°19'0 0.0
2018-Mar-05 21:00N 39°27' W 000°19'0 0.0
2018-Mar-05 20:30N 39°27' W 000°19'0 0.0
2018-Mar-05 20:00N 39°27' W 000°19'1 2.9
2018-Mar-05 19:30N 39°26' W 000°18'8720.1
2018-Mar-05 15:11N 38°49' E 001°23'213.0
2018-Mar-05 15:00N 38°49' E 001°26'6 4.6
2018-Mar-05 13:46N 38°54' E 001°27'1 2.0
2018-Mar-05 13:28N 38°54' E 001°27'918.6
2018-Mar-05 13:00N 38°58' E 001°37'3420.4
2018-Mar-05 11:19N 39°17' E 002°14'720.4
2018-Mar-05 10:59N 39°21' E 002°21'1020.3
2018-Mar-05 10:30N 39°27' E 002°32'816.8
2018-Mar-05 10:00N 39°33' E 002°38'0 0.4
2018-Mar-05 09:28N 39°34' E 002°38'0 0.0
2018-Mar-05 08:58N 39°34' E 002°38'0 0.0
2018-Mar-05 08:28N 39°34' E 002°38'0 0.0
2018-Mar-05 07:58N 39°34' E 002°38'0 0.0
2018-Mar-05 07:28N 39°34' E 002°38'0 0.0
2018-Mar-05 06:58N 39°34' E 002°38'0 0.0
2018-Mar-05 06:30N 39°34' E 002°38'0 0.0
2018-Mar-05 06:00N 39°34' E 002°38'2 4.7
2018-Mar-05 05:30N 39°31' E 002°38'1019.6
2018-Mar-05 05:00N 39°24' E 002°30'1120.2
2018-Mar-05 04:27N 39°19' E 002°17'919.9
2018-Mar-05 04:00N 39°15' E 002°06'2019.0
2018-Mar-05 02:58N 39°03' E 001°46'920.0
2018-Mar-05 02:30N 38°58' E 001°36'8 6.9
2018-Mar-05 01:20N 38°54' E 001°27'3 8.3
2018-Mar-05 01:00N 38°52' E 001°27'611.7
2018-Mar-05 00:30N 38°48' E 001°21'8415.9
2018-Mar-04 19:15N 39°25' W 000°16'313.8
2018-Mar-04 19:00N 39°27' W 000°19'0 0.3
2018-Mar-04 17:15N 39°27' W 000°20'0 0.0
2018-Mar-04 17:00N 39°27' W 000°20'0 0.0
2018-Mar-04 16:30N 39°27' W 000°20'0 0.0
2018-Mar-04 16:00N 39°27' W 000°20'0 0.0
2018-Mar-04 15:30N 39°27' W 000°20'0 0.0
2018-Mar-04 15:00N 39°27' W 000°20'0 0.0
2018-Mar-04 14:30N 39°27' W 000°20'0 0.0
2018-Mar-04 14:00N 39°27' W 000°20'0 0.0
2018-Mar-04 13:27N 39°27' W 000°20'0 0.0
2018-Mar-04 13:00N 39°27' W 000°20'0 0.0
2018-Mar-04 12:30N 39°27' W 000°20'0 0.0
2018-Mar-04 11:57N 39°27' W 000°20'0 0.0
2018-Mar-04 11:30N 39°27' W 000°20'0 0.0
2018-Mar-04 11:00N 39°27' W 000°20'0 0.0
2018-Mar-04 10:27N 39°27' W 000°20'0 0.0
2018-Mar-04 09:57N 39°27' W 000°20'0 0.0
2018-Mar-04 09:27N 39°27' W 000°20'0 0.0
2018-Mar-04 08:57N 39°27' W 000°20'0 0.0
2018-Mar-04 08:27N 39°27' W 000°20'0 0.0
2018-Mar-04 04:48N 39°27' W 000°20'0 0.0
2018-Mar-04 04:27N 39°27' W 000°20'0 0.0
2018-Mar-04 03:21N 39°27' W 000°20'0 0.0
2018-Mar-04 02:57N 39°27' W 000°20'0 0.0
2018-Mar-04 01:27N 39°27' W 000°20'0 0.0
2018-Mar-04 00:57N 39°27' W 000°20'0 0.0
2018-Mar-03 23:51N 39°27' W 000°20'0 0.0
2018-Mar-03 23:30N 39°27' W 000°20'0 0.0
2018-Mar-03 22:54N 39°27' W 000°20'0 0.0
2018-Mar-03 22:30N 39°27' W 000°20'  
Track history (hours):
 
Tides and Currents Weather Stations Pressure Air Temp Water Temp Dewpoint Dewpoint Depression Visibility Wind Speed Wind Dir Waves Ship Positions

Ciudad De Ibiza

Last reported at 2018-Mar-13 22:09 UTC. Time now 2018-Jun-19 06:48 UTC.
Position N 39°24' W 000°14'.
Warning: this ship's position is months out of date.

Length 160 m; draft 5.3 m.

Type: Other ship. MMSI: 212592000.

Date/timePositionNaut miles runAvg speedWind from/ knotsBaromVisibWave heightAir tempDewpointWater temp
2018-Mar-13 22:09N 39°24' W 000°14'215.6
2018-Mar-13 22:00N 39°25' W 000°17'3 5.7
2018-Mar-13 21:30N 39°27' W 000°19'0 0.0
2018-Mar-13 21:00N 39°27' W 000°19'0 0.0
2018-Mar-13 20:30N 39°27' W 000°19'0 0.0
2018-Mar-13 20:00N 39°27' W 000°19'0 0.0
2018-Mar-13 19:30N 39°27' W 000°19'0 0.0
2018-Mar-13 19:00N 39°27' W 000°19'0 0.0
2018-Mar-13 18:30N 39°27' W 000°19'0 0.0
2018-Mar-13 18:00N 39°27' W 000°19'1 1.1
2018-Mar-13 17:30N 39°27' W 000°19'5215.8
2018-Mar-13 14:12N 39°03' E 000°41'1217.4
2018-Mar-13 13:29N 38°57' E 000°55'2317.4
2018-Mar-13 12:09N 38°48' E 001°23'212.8
2018-Mar-13 11:58N 38°49' E 001°26'84 6.3
2018-Mar-12 22:37N 39°23' W 000°13'216.7
2018-Mar-12 22:30N 39°24' W 000°15'5 9.8
2018-Mar-12 22:01N 39°27' W 000°19'0 0.0
2018-Mar-12 21:30N 39°27' W 000°19'0 0.0
2018-Mar-12 21:01N 39°27' W 000°19'0 0.0
2018-Mar-12 20:31N 39°27' W 000°19'0 0.0
2018-Mar-12 20:01N 39°27' W 000°19'1 1.2
2018-Mar-12 19:31N 39°27' W 000°19'8818.6
2018-Mar-12 14:48N 38°48' E 001°22'411.5
2018-Mar-12 14:29N 38°50' E 001°26'4 3.6
2018-Mar-12 13:18N 38°54' E 001°29'620.6
2018-Mar-12 13:00N 38°57' E 001°35'3719.8
2018-Mar-12 11:08N 39°17' E 002°16'319.2
2018-Mar-12 10:59N 39°19' E 002°19'919.1
2018-Mar-12 10:30N 39°24' E 002°28'919.0
2018-Mar-12 10:00N 39°31' E 002°37'3 6.0
2018-Mar-12 09:30N 39°34' E 002°38'0 0.0
2018-Mar-12 09:00N 39°34' E 002°38'0 0.0
2018-Mar-12 08:30N 39°34' E 002°38'0 0.0
2018-Mar-12 07:57N 39°34' E 002°38'0 0.0
2018-Mar-12 07:27N 39°34' E 002°38'0 0.0
2018-Mar-12 07:00N 39°34' E 002°38'0 0.0
2018-Mar-12 06:30N 39°34' E 002°38'0 0.0
2018-Mar-12 06:00N 39°34' E 002°38'1 2.8
2018-Mar-12 05:30N 39°32' E 002°39'816.3
2018-Mar-12 05:00N 39°26' E 002°32'1020.1
2018-Mar-12 04:30N 39°20' E 002°21'3020.7
2018-Mar-12 03:03N 39°04' E 001°48'120.4
2018-Mar-12 02:59N 39°03' E 001°47'1020.7
2018-Mar-12 02:30N 38°58' E 001°36'8 6.8
2018-Mar-12 01:19N 38°54' E 001°27'514.2
2018-Mar-12 01:00N 38°56' E 001°32'917.2
2018-Mar-12 00:29N 39°02' E 001°41'8817.9
2018-Mar-11 19:35N 39°23' W 000°09'220.2
2018-Mar-11 19:29N 39°24' W 000°12'613.2
2018-Mar-11 19:00N 39°27' W 000°19'1 0.9
2018-Mar-11 18:08N 39°27' W 000°20'0 0.0
2018-Mar-11 16:08N 39°27' W 000°20'0 0.0
2018-Mar-11 15:44N 39°27' W 000°20'0 0.0
2018-Mar-11 15:23N 39°27' W 000°20'0 0.0
2018-Mar-11 14:56N 39°27' W 000°20'0 0.0
2018-Mar-11 14:20N 39°27' W 000°20'0 0.0
2018-Mar-11 13:59N 39°27' W 000°20'0 0.0
2018-Mar-11 13:26N 39°27' W 000°20'0 0.0
2018-Mar-11 12:56N 39°27' W 000°20'0 0.0
2018-Mar-11 11:20N 39°27' W 000°20'0 0.0
2018-Mar-11 10:56N 39°27' W 000°20'0 0.0
2018-Mar-11 10:20N 39°27' W 000°20'0 0.0
2018-Mar-11 09:38N 39°27' W 000°20'0 0.0
2018-Mar-11 09:26N 39°27' W 000°20'0 0.0
2018-Mar-11 08:56N 39°27' W 000°20'0 0.0
2018-Mar-11 08:26N 39°27' W 000°20'0 0.0
2018-Mar-11 07:59N 39°27' W 000°20'0 0.0
2018-Mar-11 07:29N 39°27' W 000°20'0 0.0
2018-Mar-11 06:56N 39°27' W 000°20'0 0.0
2018-Mar-11 06:29N 39°27' W 000°20'0 0.0
2018-Mar-11 05:56N 39°27' W 000°20'0 0.0
2018-Mar-11 05:26N 39°27' W 000°20'0 0.0
2018-Mar-11 04:56N 39°27' W 000°20'0 0.0
2018-Mar-11 04:26N 39°27' W 000°20'0 0.0
2018-Mar-11 03:59N 39°27' W 000°20'0 0.0
2018-Mar-11 03:29N 39°27' W 000°20'0 0.0
2018-Mar-11 02:59N 39°27' W 000°20'0 0.0
2018-Mar-11 02:29N 39°27' W 000°20'0 0.0
2018-Mar-11 01:41N 39°27' W 000°20'0 0.0
2018-Mar-11 01:26N 39°27' W 000°20'0 0.0
2018-Mar-11 00:56N 39°27' W 000°20'0 0.0
2018-Mar-11 00:17N 39°27' W 000°20'0 0.0
2018-Mar-10 23:59N 39°27' W 000°20'0 0.0
2018-Mar-10 23:26N 39°27' W 000°20'0 0.0
2018-Mar-10 22:56N 39°27' W 000°20'0 0.0
2018-Mar-10 22:29N 39°27' W 000°20'0 0.0
2018-Mar-10 21:56N 39°27' W 000°20'0 0.0
2018-Mar-10 20:56N 39°27' W 000°20'0 0.0
2018-Mar-10 18:25N 39°27' W 000°20'0 0.0
2018-Mar-10 18:00N 39°27' W 000°20'1 1.6
2018-Mar-10 17:30N 39°27' W 000°19'8216.6
2018-Mar-10 12:31N 38°50' E 001°16'416.8
2018-Mar-10 12:16N 38°48' E 001°21'312.5
2018-Mar-10 12:00N 38°49' E 001°26'4 0.5
2018-Mar-10 03:50N 38°53' E 001°27'8314.3
2018-Mar-09 22:02N 39°24' W 000°13'115.3
2018-Mar-09 21:59N 39°24' W 000°14'611.7
2018-Mar-09 21:31N 39°27' W 000°19'0 0.1
2018-Mar-09 20:59N 39°27' W 000°19'0 0.0
2018-Mar-09 20:29N 39°27' W 000°19'0 0.0
2018-Mar-09 19:59N 39°27' W 000°19'0 0.0
2018-Mar-09 19:29N 39°27' W 000°19'0 0.0
2018-Mar-09 19:00N 39°27' W 000°19'0 0.0
2018-Mar-09 18:30N 39°27' W 000°19'0 0.0
2018-Mar-09 18:00N 39°27' W 000°19'1 1.3
2018-Mar-09 17:30N 39°27' W 000°19'8216.7
2018-Mar-09 12:33N 38°50' E 001°16'217.2
2018-Mar-09 12:28N 38°49' E 001°18'613.8
2018-Mar-09 12:00N 38°49' E 001°26'5 1.7
2018-Mar-09 08:51N 38°54' E 001°27'0 0.0
2018-Mar-09 06:06N 38°54' E 001°27'0 0.0
2018-Mar-09 05:52N 38°54' E 001°27'0 0.0
2018-Mar-09 05:18N 38°54' E 001°27'0 0.0
2018-Mar-09 04:51N 38°54' E 001°27'0 0.0
2018-Mar-09 04:30N 38°54' E 001°27'1 0.9
2018-Mar-09 03:57N 38°54' E 001°27'712.0
2018-Mar-09 03:23N 38°48' E 001°24'8115.8
2018-Mar-08 22:16N 39°23' W 000°10'514.9
2018-Mar-08 21:57N 39°25' W 000°16'4 7.8
2018-Mar-08 21:29N 39°27' W 000°19'0 0.0
2018-Mar-08 20:59N 39°27' W 000°19'0 0.0
2018-Mar-08 20:23N 39°27' W 000°19'5 0.2
2018-Mar-07 21:58N 39°24' W 000°15'5 9.4
2018-Mar-07 21:29N 39°27' W 000°19'0 0.0
2018-Mar-07 20:59N 39°27' W 000°19'0 0.0
2018-Mar-07 20:29N 39°27' W 000°19'0 0.0
2018-Mar-07 19:59N 39°27' W 000°19'0 0.0
2018-Mar-07 19:29N 39°27' W 000°19'0 0.0
2018-Mar-07 19:01N 39°27' W 000°19'0 0.0
2018-Mar-07 18:30N 39°27' W 000°19'0 0.0
2018-Mar-07 18:00N 39°27' W 000°19'1 1.1
2018-Mar-07 17:30N 39°27' W 000°19'8017.0
2018-Mar-07 12:49N 38°51' E 001°13'616.6
2018-Mar-07 12:29N 38°49' E 001°19'612.3
2018-Mar-07 12:00N 38°50' E 001°27'4 7.9
2018-Mar-07 11:29N 38°54' E 001°27'0 0.0
2018-Mar-07 10:59N 38°54' E 001°27'0 0.0
2018-Mar-07 10:29N 38°54' E 001°27'0 0.0
2018-Mar-07 09:59N 38°54' E 001°27'0 0.0
2018-Mar-07 09:29N 38°54' E 001°27'0 0.0
2018-Mar-07 08:59N 38°54' E 001°27'0 0.0
2018-Mar-07 08:29N 38°54' E 001°27'0 0.0
2018-Mar-07 07:59N 38°54' E 001°27'0 0.0
2018-Mar-07 07:29N 38°54' E 001°27'0 0.0
2018-Mar-07 06:59N 38°54' E 001°27'0 0.0
2018-Mar-07 06:29N 38°54' E 001°27'1 0.4
2018-Mar-07 03:52N 38°53' E 001°27'8114.5
2018-Mar-06 22:15N 39°22' W 000°11'415.9
2018-Mar-06 21:59N 39°25' W 000°15'4 8.5
2018-Mar-06 21:29N 39°27' W 000°19'0 0.0
2018-Mar-06 20:59N 39°27' W 000°19'0 0.0
2018-Mar-06 20:29N 39°27' W 000°19'0 0.0
2018-Mar-06 19:59N 39°27' W 000°19'0 0.0
2018-Mar-06 19:29N 39°27' W 000°19'0 0.0
2018-Mar-06 19:00N 39°27' W 000°19'0 0.0
2018-Mar-06 18:30N 39°27' W 000°19'0 0.0
2018-Mar-06 18:00N 39°27' W 000°19'1 1.5
2018-Mar-06 17:30N 39°27' W 000°19'816.3
2018-Mar-06 17:00N 39°24' W 000°09'8719.1
2018-Mar-06 12:26N 39°02' E 001°40'819.4
2018-Mar-06 12:00N 38°56' E 001°33'5 0.8
2018-Mar-06 06:27N 38°54' E 001°27'0 0.0
2018-Mar-06 05:57N 38°54' E 001°27'0 0.0
2018-Mar-06 05:27N 38°54' E 001°27'0 0.0
2018-Mar-06 05:00N 38°54' E 001°27'0 0.1
2018-Mar-06 04:27N 38°54' E 001°27'4 9.4
2018-Mar-06 04:00N 38°50' E 001°27'712.7
2018-Mar-06 03:28N 38°48' E 001°18'7716.1
2018-Mar-05 22:41N 39°21' W 000°11'516.8
2018-Mar-05 22:23N 39°25' W 000°16'4 9.5
2018-Mar-05 21:59N 39°27' W 000°19'0 0.0
2018-Mar-05 21:30N 39°27' W 000°19'0 0.0
2018-Mar-05 21:00N 39°27' W 000°19'0 0.0
2018-Mar-05 20:30N 39°27' W 000°19'0 0.0
2018-Mar-05 20:00N 39°27' W 000°19'1 2.9
2018-Mar-05 19:30N 39°26' W 000°18'8720.1
2018-Mar-05 15:11N 38°49' E 001°23'213.0
2018-Mar-05 15:00N 38°49' E 001°26'6 4.6
2018-Mar-05 13:46N 38°54' E 001°27'1 2.0
2018-Mar-05 13:28N 38°54' E 001°27'918.6
2018-Mar-05 13:00N 38°58' E 001°37'3420.4
2018-Mar-05 11:19N 39°17' E 002°14'720.4
2018-Mar-05 10:59N 39°21' E 002°21'1020.3
2018-Mar-05 10:30N 39°27' E 002°32'816.8
2018-Mar-05 10:00N 39°33' E 002°38'0 0.4
2018-Mar-05 09:28N 39°34' E 002°38'0 0.0
2018-Mar-05 08:58N 39°34' E 002°38'0 0.0
2018-Mar-05 08:28N 39°34' E 002°38'0 0.0
2018-Mar-05 07:58N 39°34' E 002°38'0 0.0
2018-Mar-05 07:28N 39°34' E 002°38'0 0.0
2018-Mar-05 06:58N 39°34' E 002°38'0 0.0
2018-Mar-05 06:30N 39°34' E 002°38'0 0.0
2018-Mar-05 06:00N 39°34' E 002°38'2 4.7
2018-Mar-05 05:30N 39°31' E 002°38'1019.6
2018-Mar-05 05:00N 39°24' E 002°30'1120.2
2018-Mar-05 04:27N 39°19' E 002°17'919.9
2018-Mar-05 04:00N 39°15' E 002°06'2019.0
2018-Mar-05 02:58N 39°03' E 001°46'920.0
2018-Mar-05 02:30N 38°58' E 001°36'8 6.9
2018-Mar-05 01:20N 38°54' E 001°27'3 8.3
2018-Mar-05 01:00N 38°52' E 001°27'611.7
2018-Mar-05 00:30N 38°48' E 001°21'8415.9
2018-Mar-04 19:15N 39°25' W 000°16'313.8
2018-Mar-04 19:00N 39°27' W 000°19'0 0.3
2018-Mar-04 17:15N 39°27' W 000°20'0 0.0
2018-Mar-04 17:00N 39°27' W 000°20'0 0.0
2018-Mar-04 16:30N 39°27' W 000°20'0 0.0
2018-Mar-04 16:00N 39°27' W 000°20'0 0.0
2018-Mar-04 15:30N 39°27' W 000°20'0 0.0
2018-Mar-04 15:00N 39°27' W 000°20'0 0.0
2018-Mar-04 14:30N 39°27' W 000°20'0 0.0
2018-Mar-04 14:00N 39°27' W 000°20'0 0.0
2018-Mar-04 13:27N 39°27' W 000°20'0 0.0
2018-Mar-04 13:00N 39°27' W 000°20'0 0.0
2018-Mar-04 12:30N 39°27' W 000°20'0 0.0
2018-Mar-04 11:57N 39°27' W 000°20'0 0.0
2018-Mar-04 11:30N 39°27' W 000°20'0 0.0
2018-Mar-04 11:00N 39°27' W 000°20'0 0.0
2018-Mar-04 10:27N 39°27' W 000°20'0 0.0
2018-Mar-04 09:57N 39°27' W 000°20'0 0.0
2018-Mar-04 09:27N 39°27' W 000°20'0 0.0
2018-Mar-04 08:57N 39°27' W 000°20'0 0.0
2018-Mar-04 08:27N 39°27' W 000°20'0 0.0
2018-Mar-04 04:48N 39°27' W 000°20'0 0.0
2018-Mar-04 04:27N 39°27' W 000°20'0 0.0
2018-Mar-04 03:21N 39°27' W 000°20'0 0.0
2018-Mar-04 02:57N 39°27' W 000°20'0 0.0
2018-Mar-04 01:27N 39°27' W 000°20'0 0.0
2018-Mar-04 00:57N 39°27' W 000°20'0 0.0
2018-Mar-03 23:51N 39°27' W 000°20'0 0.0
2018-Mar-03 23:30N 39°27' W 000°20'0 0.0
2018-Mar-03 22:54N 39°27' W 000°20'0 0.0
2018-Mar-03 22:30N 39°27' W 000°20'  

Dump ship's entire track history